Time;durP1;ratioP1;P1;durP2;ratioP2;P2;SDS_P1;SDS_P2;PMS_P1;PMS_P2;Temp;Humidity;BMP_temperature;BMP_pressure;BME280_temperature;BME280_humidity;BME280_pressure;Samples;Min_cycle;Max_cycle;Signal;HPM_P1;HPM_P2
2023/02/04 00:00:17;;;;;;;1.20;1.17;;;;;;;4.39;100.00;101496.13;5010865;28;20299;-83
2023/02/04 00:02:43;;;;;;;5.63;2.53;;;;;;;4.33;100.00;101510.63;5010778;28;20180;-83
2023/02/04 00:05:09;;;;;;;4.63;1.20;;;;;;;4.29;100.00;101504.88;5010749;28;20539;-84
2023/02/04 00:07:35;;;;;;;0.57;0.43;;;;;;;4.30;100.00;101519.22;5010727;28;20208;-85
2023/02/04 00:10:01;;;;;;;10.30;2.10;;;;;;;4.25;100.00;101517.25;5006134;28;20208;-86
2023/02/04 00:12:26;;;;;;;0.20;0.10;;;;;;;4.23;100.00;101513.16;4990853;28;20512;-82
2023/02/04 00:14:51;;;;;;;0.73;0.67;;;;;;;4.20;100.00;101517.19;4991378;28;20296;-83
2023/02/04 00:17:17;;;;;;;0.10;0.10;;;;;;;4.21;100.00;101523.41;4989653;28;20177;-72
2023/02/04 00:19:42;;;;;;;0.00;0.00;;;;;;;4.16;100.00;101514.13;4991389;28;20522;-71
2023/02/04 00:22:08;;;;;;;0.00;0.00;;;;;;;4.13;100.00;101527.31;4993928;28;20193;-72
2023/02/04 00:24:34;;;;;;;0.00;0.00;;;;;;;4.25;100.00;101538.91;4992227;28;20236;-72
2023/02/04 00:27:00;;;;;;;0.00;0.00;;;;;;;4.15;100.00;101544.94;4991211;28;20227;-71
2023/02/04 00:29:26;;;;;;;2.20;0.50;;;;;;;4.09;100.00;101545.91;4994706;28;20675;-72
2023/02/04 00:31:51;;;;;;;1.43;1.13;;;;;;;4.11;100.00;101551.88;4994502;28;20235;-71
2023/02/04 00:34:17;;;;;;;11.73;3.13;;;;;;;4.13;100.00;101557.88;4994489;28;20181;-71
2023/02/04 00:36:42;;;;;;;1.27;1.17;;;;;;;4.09;100.00;101556.72;4994355;28;20177;-72
2023/02/04 00:39:08;;;;;;;0.27;0.27;;;;;;;4.03;100.00;101563.06;4994840;28;20405;-72
2023/02/04 00:41:33;;;;;;;0.00;0.00;;;;;;;3.98;100.00;101573.81;4994193;28;20628;-75
2023/02/04 00:43:58;;;;;;;0.73;0.73;;;;;;;4.05;100.00;101560.13;4994500;28;20193;-72
2023/02/04 00:46:23;;;;;;;0.27;0.27;;;;;;;4.02;100.00;101569.53;4994224;28;20177;-71
2023/02/04 00:48:49;;;;;;;0.77;0.73;;;;;;;4.03;100.00;101573.06;4993987;28;20208;-71
2023/02/04 00:51:14;;;;;;;0.00;0.00;;;;;;;3.94;100.00;101583.47;4994032;28;20593;-73
2023/02/04 00:53:39;;;;;;;0.00;0.00;;;;;;;3.92;100.00;101591.00;4994166;28;20173;-71
2023/02/04 00:56:05;;;;;;;0.00;0.00;;;;;;;3.95;100.00;101603.19;4994124;28;20169;-74
2023/02/04 00:58:30;;;;;;;0.00;0.00;;;;;;;3.88;100.00;101617.66;4995405;28;20633;-74
2023/02/04 01:00:56;;;;;;;11.67;1.23;;;;;;;3.97;100.00;101637.03;4993927;28;20200;-73
2023/02/04 01:03:21;;;;;;;0.00;0.00;;;;;;;3.94;100.00;101640.22;4994065;28;20182;-76
2023/02/04 01:05:46;;;;;;;2.43;1.40;;;;;;;3.89;100.00;101640.91;4993838;28;20173;-71
2023/02/04 01:08:12;;;;;;;0.10;0.10;;;;;;;3.89;100.00;101643.63;4993926;28;20185;-73
2023/02/04 01:10:37;;;;;;;8.37;0.73;;;;;;;3.85;100.00;101645.16;4993694;28;20564;-72
2023/02/04 01:13:03;;;;;;;2.17;1.07;;;;;;;3.85;100.00;101649.75;4993784;28;20239;-72
2023/02/04 01:15:28;;;;;;;0.00;0.00;;;;;;;3.87;100.00;101658.44;4993834;28;20239;-72
2023/02/04 01:17:53;;;;;;;1.13;0.63;;;;;;;3.82;100.00;101671.84;4993637;28;20205;-72
2023/02/04 01:20:19;;;;;;;2.80;1.30;;;;;;;3.83;100.00;101677.03;4993584;28;20174;-72
2023/02/04 01:22:44;;;;;;;0.57;0.23;;;;;;;3.83;100.00;101681.59;4993620;28;20255;-72
2023/02/04 01:25:09;;;;;;;0.00;0.00;;;;;;;3.87;100.00;101688.19;4993640;28;20706;-72
2023/02/04 01:27:35;;;;;;;5.00;1.03;;;;;;;3.91;100.00;101691.25;4993363;28;20177;-71
2023/02/04 01:30:00;;;;;;;0.17;0.10;;;;;;;3.91;100.00;101694.78;4993395;28;20205;-71
2023/02/04 01:32:25;;;;;;;1.00;0.00;;;;;;;3.89;100.00;101700.41;4993261;28;20379;-73
2023/02/04 01:34:50;;;;;;;2.90;0.30;;;;;;;3.88;100.00;101722.25;4993349;28;20662;-85
2023/02/04 01:37:16;;;;;;;0.00;0.00;;;;;;;3.87;100.00;101718.75;4993302;28;20177;-86
2023/02/04 01:39:42;;;;;;;0.23;0.23;;;;;;;3.89;100.00;101723.91;4992567;28;20188;-85
2023/02/04 01:42:07;;;;;;;0.00;0.00;;;;;;;3.89;100.00;101732.00;4993169;28;20180;-86
2023/02/04 01:44:32;;;;;;;0.00;0.00;;;;;;;3.83;100.00;101741.06;4993139;28;20196;-80
2023/02/04 01:46:58;;;;;;;7.10;0.77;;;;;;;3.86;100.00;101748.72;4991803;28;20178;-85
2023/02/04 01:49:24;;;;;;;0.00;0.00;;;;;;;3.82;100.00;101755.66;4993238;28;20548;-86
2023/02/04 01:51:50;;;;;;;0.00;0.00;;;;;;;3.84;100.00;101758.94;4992926;28;20625;-87
2023/02/04 01:54:20;;;;;;;0.00;0.00;;;;;;;3.79;100.00;101761.53;4993253;28;20177;-84
2023/02/04 01:56:47;;;;;;;0.00;0.00;;;;;;;3.84;100.00;101769.75;4993096;28;20166;-84
2023/02/04 01:59:15;;;;;;;0.13;0.13;;;;;;;3.83;100.00;101758.13;4992760;28;20272;-82
2023/02/04 02:01:43;;;;;;;0.00;0.00;;;;;;;3.81;100.00;101775.63;4992825;28;20566;-85
2023/02/04 02:04:10;;;;;;;0.00;0.00;;;;;;;3.80;100.00;101779.41;4992797;28;20184;-83
2023/02/04 02:06:41;;;;;;;0.00;0.00;;;;;;;3.82;100.00;101782.69;4992818;28;20658;-86
2023/02/04 02:09:06;;;;;;;0.00;0.00;;;;;;;3.83;100.00;101787.03;4991400;28;20212;-84
2023/02/04 02:11:31;;;;;;;0.00;0.00;;;;;;;3.82;100.00;101790.78;4992619;28;20178;-83
2023/02/04 02:13:57;;;;;;;0.00;0.00;;;;;;;3.79;100.00;101792.09;4992672;28;20169;-80
2023/02/04 02:16:23;;;;;;;0.00;0.00;;;;;;;3.74;100.00;101804.63;4991218;28;20184;-84
2023/02/04 02:18:48;;;;;;;0.00;0.00;;;;;;;3.75;100.00;101808.97;4992600;28;20196;-85
2023/02/04 02:21:17;;;;;;;0.00;0.00;;;;;;;3.73;100.00;101801.09;4992247;28;20207;-84
2023/02/04 02:23:43;;;;;;;0.00;0.00;;;;;;;3.70;100.00;101811.56;4992567;28;20177;-81
2023/02/04 02:26:08;;;;;;;0.00;0.00;;;;;;;3.71;100.00;101807.81;4992713;28;20231;-84
2023/02/04 02:28:33;;;;;;;0.00;0.00;;;;;;;3.70;100.00;101814.28;4992399;28;20200;-86
2023/02/04 02:30:59;;;;;;;2.60;0.50;;;;;;;3.68;100.00;101810.97;4992205;28;20177;-86
2023/02/04 02:33:25;;;;;;;0.00;0.00;;;;;;;3.65;100.00;101820.38;4992279;28;20179;-86
2023/02/04 02:35:50;;;;;;;0.00;0.00;;;;;;;3.64;100.00;101840.34;4992255;28;20259;-86
2023/02/04 02:38:17;;;;;;;0.00;0.00;;;;;;;3.61;100.00;101838.09;4992139;28;20575;-82
2023/02/04 02:40:44;;;;;;;0.00;0.00;;;;;;;3.60;100.00;101844.53;4991864;28;20177;-87
2023/02/04 02:43:16;;;;;;;0.30;0.30;;;;;;;3.52;100.00;101853.81;4992117;28;20173;-80
2023/02/04 02:45:42;;;;;;;0.00;0.00;;;;;;;3.50;100.00;101855.94;4991781;28;20165;-85
2023/02/04 02:48:09;;;;;;;7.83;1.40;;;;;;;3.43;100.00;101859.75;4991976;28;20339;-85
2023/02/04 02:50:34;;;;;;;0.00;0.00;;;;;;;3.44;100.00;101867.63;4990591;28;20205;-83
2023/02/04 02:53:00;;;;;;;0.00;0.00;;;;;;;3.46;100.00;101876.34;4991648;28;20183;-85
2023/02/04 02:55:27;;;;;;;0.20;0.20;;;;;;;3.38;100.00;101876.66;4990411;28;20562;-85
2023/02/04 02:57:53;;;;;;;0.00;0.00;;;;;;;3.35;100.00;101889.81;4991125;28;20169;-76
2023/02/04 03:00:28;;;;;;;0.10;0.10;;;;;;;3.27;98.83;101889.06;4991294;28;20196;-81
2023/02/04 03:03:02;;;;;;;0.00;0.00;;;;;;;3.23;98.37;101895.16;4991663;28;20164;-83
2023/02/04 03:05:32;;;;;;;0.40;0.40;;;;;;;3.13;98.12;101898.38;4991492;28;20590;-84
2023/02/04 03:07:58;;;;;;;0.00;0.00;;;;;;;3.09;98.42;101905.28;4991848;28;20173;-86
2023/02/04 03:10:24;;;;;;;0.10;0.10;;;;;;;3.06;98.29;101904.91;4991175;28;20649;-80
2023/02/04 03:12:49;;;;;;;0.00;0.00;;;;;;;3.07;98.32;101918.19;4991522;28;20190;-85
2023/02/04 03:15:15;;;;;;;0.00;0.00;;;;;;;3.01;99.04;101912.84;4991447;28;20184;-86
2023/02/04 03:17:41;;;;;;;0.00;0.00;;;;;;;3.02;98.64;101928.00;4990117;28;20185;-84
2023/02/04 03:20:07;;;;;;;0.00;0.00;;;;;;;2.98;98.89;101928.44;4991099;28;20538;-85
2023/02/04 03:22:33;;;;;;;0.00;0.00;;;;;;;2.99;98.73;101940.06;4991594;28;20216;-86
2023/02/04 03:24:58;;;;;;;0.20;0.20;;;;;;;2.94;98.33;101948.84;4991366;28;20647;-87
2023/02/04 03:27:24;;;;;;;0.00;0.00;;;;;;;2.97;98.19;101953.78;4991260;28;20173;-84
2023/02/04 03:29:49;;;;;;;0.00;0.00;;;;;;;2.89;98.22;101956.81;4991347;28;20208;-86
2023/02/04 03:32:15;;;;;;;0.00;0.00;;;;;;;2.82;98.30;101960.59;4991246;28;20170;-86
2023/02/04 03:34:40;;;;;;;0.17;0.17;;;;;;;2.87;98.95;101979.63;4991211;28;20185;-82
2023/02/04 03:37:05;;;;;;;0.00;0.00;;;;;;;2.80;98.62;101973.50;4990991;28;20219;-86
2023/02/04 03:39:31;;;;;;;0.00;0.00;;;;;;;2.77;99.19;101982.88;4991456;28;20181;-83
2023/02/04 03:41:56;;;;;;;0.00;0.00;;;;;;;2.77;98.96;101980.16;4991116;28;20181;-85
2023/02/04 03:44:25;;;;;;;0.60;0.60;;;;;;;2.65;98.92;101995.41;4991134;28;20550;-86
2023/02/04 03:46:54;;;;;;;0.00;0.00;;;;;;;2.67;99.29;101999.53;4989667;28;20624;-83
2023/02/04 03:49:19;;;;;;;0.00;0.00;;;;;;;2.67;98.89;102009.50;4990995;28;20205;-85
2023/02/04 03:51:44;;;;;;;0.00;0.00;;;;;;;2.64;99.09;102005.38;4990819;28;20637;-86
2023/02/04 03:54:10;;;;;;;0.00;0.00;;;;;;;2.62;98.78;102009.34;4990904;28;20645;-86
2023/02/04 03:56:35;;;;;;;0.00;0.00;;;;;;;2.49;99.02;102009.44;4990941;28;20177;-79
2023/02/04 03:59:01;;;;;;;0.00;0.00;;;;;;;2.49;99.53;102015.69;4989256;28;20181;-86
2023/02/04 04:01:26;;;;;;;0.00;0.00;;;;;;;2.48;99.68;102024.00;4990870;28;20180;-86
2023/02/04 04:03:51;;;;;;;0.00;0.00;;;;;;;2.42;99.65;102019.44;4993678;28;20655;-85
2023/02/04 04:06:16;;;;;;;0.00;0.00;;;;;;;2.31;99.69;102023.66;4994675;28;20221;-85
2023/02/04 04:08:42;;;;;;;0.00;0.00;;;;;;;2.32;99.63;102026.16;4994904;28;20705;-81
2023/02/04 04:11:07;;;;;;;0.00;0.00;;;;;;;2.41;99.71;102029.41;4994803;28;20204;-83
2023/02/04 04:13:32;;;;;;;0.00;0.00;;;;;;;2.52;99.91;102039.50;4994629;28;20189;-81
2023/02/04 04:15:58;;;;;;;0.00;0.00;;;;;;;2.58;99.53;102041.31;4994614;28;20657;-87
2023/02/04 04:18:23;;;;;;;0.10;0.10;;;;;;;2.37;99.40;102047.91;4994630;28;20582;-85
2023/02/04 04:20:48;;;;;;;0.00;0.00;;;;;;;2.36;99.80;102053.53;4992856;28;20197;-81
2023/02/04 04:23:14;;;;;;;0.00;0.00;;;;;;;2.37;99.88;102049.78;4994297;28;20197;-86
2023/02/04 04:25:39;;;;;;;0.00;0.00;;;;;;;2.24;100.00;102050.69;4993007;28;20173;-84
2023/02/04 04:28:04;;;;;;;0.00;0.00;;;;;;;2.26;100.00;102054.00;4994351;28;20185;-88
2023/02/04 04:30:29;;;;;;;0.00;0.00;;;;;;;2.39;100.00;102056.59;4994088;28;20213;-86
2023/02/04 04:32:55;;;;;;;1.80;1.80;;;;;;;2.50;100.00;102056.97;4994323;28;20538;-86
2023/02/04 04:35:20;;;;;;;0.00;0.00;;;;;;;2.66;100.00;102061.81;4994279;28;20169;-80
2023/02/04 04:37:45;;;;;;;0.00;0.00;;;;;;;2.73;100.00;102080.66;4994236;28;20417;-82
2023/02/04 04:40:11;;;;;;;0.10;0.10;;;;;;;2.32;99.77;102079.28;4994130;28;20672;-88
2023/02/04 04:42:37;;;;;;;0.00;0.00;;;;;;;2.45;100.00;102094.53;4994213;28;20169;-85
2023/02/04 04:45:10;;;;;;;0.00;0.00;;;;;;;2.45;100.00;102102.63;4994282;28;20177;-88
2023/02/04 04:47:35;;;;;;;0.00;0.00;;;;;;;2.29;100.00;102101.25;4994410;28;20381;-87
2023/02/04 04:50:00;;;;;;;0.00;0.00;;;;;;;2.46;99.87;102098.88;4993973;28;20197;-85
2023/02/04 04:52:26;;;;;;;0.83;0.83;;;;;;;2.51;99.76;102099.06;4994358;28;20180;-82
2023/02/04 04:54:51;;;;;;;0.00;0.00;;;;;;;2.49;99.33;102096.59;4994170;28;20552;-89
2023/02/04 04:57:16;;;;;;;0.00;0.00;;;;;;;2.47;98.76;102108.66;4994284;28;20181;-82
2023/02/04 04:59:41;;;;;;;0.03;0.03;;;;;;;2.27;98.50;102108.75;4992634;28;20216;-88
2023/02/04 05:02:07;;;;;;;0.00;0.00;;;;;;;2.05;98.38;102121.72;4993963;28;20177;-78
2023/02/04 05:04:32;;;;;;;0.00;0.00;;;;;;;1.84;98.81;102122.81;4994052;28;20185;-85
2023/02/04 05:06:57;;;;;;;0.00;0.00;;;;;;;1.64;99.35;102119.34;4993955;28;20260;-83
2023/02/04 05:09:23;;;;;;;0.40;0.40;;;;;;;1.47;100.00;102129.75;4994041;28;20205;-88
2023/02/04 05:11:48;;;;;;;3.30;0.40;;;;;;;1.31;100.00;102131.00;4993947;28;20588;-82
2023/02/04 05:14:13;;;;;;;0.00;0.00;;;;;;;1.11;100.00;102136.38;4992981;28;20182;-80
2023/02/04 05:16:38;;;;;;;0.00;0.00;;;;;;;0.96;100.00;102134.91;4993661;28;20228;-85
2023/02/04 05:19:04;;;;;;;0.47;0.47;;;;;;;0.82;100.00;102139.44;4993715;28;20231;-83
2023/02/04 05:21:29;;;;;;;0.10;0.10;;;;;;;0.73;100.00;102138.00;4993993;28;20192;-83
2023/02/04 05:23:54;;;;;;;0.00;0.00;;;;;;;0.63;100.00;102146.47;4993822;28;20696;-84
2023/02/04 05:26:20;;;;;;;0.00;0.00;;;;;;;0.55;100.00;102149.31;4993685;28;20312;-88
2023/02/04 05:28:45;;;;;;;0.03;0.03;;;;;;;0.51;100.00;102146.22;4992537;28;20181;-89
2023/02/04 05:31:10;;;;;;;0.00;0.00;;;;;;;0.45;100.00;102144.34;4992437;28;20193;-84
2023/02/04 05:33:35;;;;;;;0.00;0.00;;;;;;;0.40;100.00;102145.97;4993895;28;20626;-83
2023/02/04 05:36:01;;;;;;;0.00;0.00;;;;;;;0.35;100.00;102141.22;4993595;28;20177;-83
2023/02/04 05:38:26;;;;;;;0.00;0.00;;;;;;;0.26;100.00;102154.00;4993359;28;20235;-78
2023/02/04 05:40:51;;;;;;;0.00;0.00;;;;;;;0.24;100.00;102152.53;4993118;28;20196;-81
2023/02/04 05:43:16;;;;;;;0.30;0.30;;;;;;;0.22;100.00;102160.81;4993325;28;20204;-80
2023/02/04 05:45:42;;;;;;;0.00;0.00;;;;;;;0.21;100.00;102169.91;4993105;28;20181;-80
2023/02/04 05:48:07;;;;;;;0.00;0.00;;;;;;;0.17;100.00;102175.88;4993028;28;20625;-83
2023/02/04 05:50:32;;;;;;;0.00;0.00;;;;;;;0.12;100.00;102187.22;4993062;28;20256;-77
2023/02/04 05:52:58;;;;;;;0.00;0.00;;;;;;;0.08;100.00;102185.13;4993080;28;20637;-73
2023/02/04 05:55:23;;;;;;;0.00;0.00;;;;;;;0.04;100.00;102182.00;4992832;28;20181;-78
2023/02/04 05:57:48;;;;;;;0.00;0.00;;;;;;;0.10;100.00;102183.06;4992598;28;20193;-84
2023/02/04 06:00:14;;;;;;;0.00;0.00;;;;;;;0.07;100.00;102189.69;4992351;28;20182;-85
2023/02/04 06:02:39;;;;;;;0.30;0.30;;;;;;;-0.02;100.00;102189.00;4993023;28;20744;-83
2023/02/04 06:05:05;;;;;;;0.10;0.10;;;;;;;0.02;100.00;102194.00;4992743;28;20575;-82
2023/02/04 06:07:30;;;;;;;2.27;0.33;;;;;;;0.03;100.00;102199.16;4992774;28;20188;-83
2023/02/04 06:09:55;;;;;;;0.00;0.00;;;;;;;-0.06;100.00;102203.03;4992636;28;20214;-77
2023/02/04 06:12:21;;;;;;;0.10;0.10;;;;;;;-0.14;100.00;102203.19;4992573;28;20180;-81
2023/02/04 06:14:46;;;;;;;0.00;0.00;;;;;;;-0.24;100.00;102205.41;4992605;28;20251;-85
2023/02/04 06:17:11;;;;;;;2.70;2.57;;;;;;;-0.30;100.00;102205.13;4992528;28;20178;-84
2023/02/04 06:19:37;;;;;;;0.00;0.00;;;;;;;-0.27;100.00;102209.31;4992881;28;20204;-81
2023/02/04 06:22:02;;;;;;;0.00;0.00;;;;;;;-0.22;100.00;102209.53;4992279;28;20188;-84
2023/02/04 06:24:27;;;;;;;0.00;0.00;;;;;;;-0.14;100.00;102216.63;4992312;28;20533;-81
2023/02/04 06:26:53;;;;;;;0.00;0.00;;;;;;;-0.11;100.00;102219.75;4992285;28;20177;-80
2023/02/04 06:29:18;;;;;;;0.00;0.00;;;;;;;-0.17;100.00;102217.81;4990809;28;20207;-85
2023/02/04 06:31:43;;;;;;;0.00;0.00;;;;;;;-0.23;100.00;102228.53;4992184;28;20626;-78
2023/02/04 06:34:08;;;;;;;0.00;0.00;;;;;;;-0.31;100.00;102226.81;4990902;28;20626;-81
2023/02/04 06:36:34;;;;;;;0.00;0.00;;;;;;;-0.39;100.00;102229.66;4991853;28;20169;-80
2023/02/04 06:38:59;;;;;;;0.03;0.03;;;;;;;-0.49;100.00;102234.53;4992233;28;20185;-85
2023/02/04 06:41:24;;;;;;;0.00;0.00;;;;;;;-0.53;100.00;102234.09;4991647;28;20177;-85
2023/02/04 06:43:50;;;;;;;0.20;0.20;;;;;;;-0.54;100.00;102231.59;4992340;28;20185;-85
2023/02/04 06:46:15;;;;;;;0.00;0.00;;;;;;;-0.53;100.00;102238.63;4991861;28;20184;-78
2023/02/04 06:48:40;;;;;;;0.00;0.00;;;;;;;-0.56;100.00;102234.50;4991830;28;20213;-77
2023/02/04 06:51:06;;;;;;;0.00;0.00;;;;;;;-0.56;100.00;102233.66;4991595;28;20260;-89
2023/02/04 06:53:31;;;;;;;0.00;0.00;;;;;;;-0.51;100.00;102244.63;4992335;28;20245;-81
2023/02/04 06:55:56;;;;;;;0.00;0.00;;;;;;;-0.48;100.00;102245.06;4991585;28;20182;-83
2023/02/04 06:58:21;;;;;;;0.10;0.10;;;;;;;-0.43;100.00;102255.25;4991491;28;20192;-81
2023/02/04 07:00:47;;;;;;;0.00;0.00;;;;;;;-0.40;100.00;102254.84;4991117;28;20185;-77
2023/02/04 07:03:12;;;;;;;0.00;0.00;;;;;;;-0.35;100.00;102257.78;4991494;28;20178;-81
2023/02/04 07:05:37;;;;;;;0.00;0.00;;;;;;;-0.32;100.00;102247.47;4991617;28;20192;-77
2023/02/04 07:08:03;;;;;;;0.00;0.00;;;;;;;-0.31;100.00;102259.88;4991344;28;20264;-86
2023/02/04 07:10:28;;;;;;;0.10;0.10;;;;;;;-0.34;100.00;102265.63;4990852;28;20233;-83
2023/02/04 07:12:53;;;;;;;0.00;0.00;;;;;;;-0.33;100.00;102272.66;4991297;28;20620;-82
2023/02/04 07:15:19;;;;;;;0.00;0.00;;;;;;;-0.27;100.00;102276.44;4991233;28;20595;-85
2023/02/04 07:17:44;;;;;;;0.00;0.00;;;;;;;-0.17;100.00;102290.34;4991112;28;20268;-79
2023/02/04 07:20:10;;;;;;;0.00;0.00;;;;;;;-0.09;100.00;102287.53;4989630;28;20266;-86
2023/02/04 07:22:35;;;;;;;0.00;0.00;;;;;;;-0.03;100.00;102294.78;4991127;28;20277;-85
2023/02/04 07:25:01;;;;;;;0.00;0.00;;;;;;;0.07;100.00;102293.63;4991042;28;20256;-84
2023/02/04 07:27:26;;;;;;;0.00;0.00;;;;;;;0.10;100.00;102295.94;4991078;28;20228;-76
2023/02/04 07:29:51;;;;;;;0.00;0.00;;;;;;;0.22;100.00;102302.41;4991048;28;20208;-76
2023/02/04 07:32:17;;;;;;;0.10;0.10;;;;;;;0.27;100.00;102311.53;4990719;28;20181;-81
2023/02/04 07:34:42;;;;;;;0.00;0.00;;;;;;;0.32;100.00;102313.66;4990982;28;20230;-79
2023/02/04 07:37:08;;;;;;;0.00;0.00;;;;;;;0.39;100.00;102308.31;4994051;28;20536;-78
2023/02/04 07:39:33;;;;;;;0.00;0.00;;;;;;;0.52;100.00;102314.59;4997433;28;20646;-75
2023/02/04 07:41:58;;;;;;;0.00;0.00;;;;;;;0.66;100.00;102320.03;4997373;28;20254;-72
2023/02/04 07:44:24;;;;;;;0.00;0.00;;;;;;;0.74;100.00;102328.78;4997519;28;20212;-79
2023/02/04 07:46:49;;;;;;;0.30;0.30;;;;;;;0.77;100.00;102335.63;4997247;28;20185;-79
2023/02/04 07:49:14;;;;;;;0.00;0.00;;;;;;;0.85;100.00;102346.19;4997383;28;20228;-79
2023/02/04 07:51:39;;;;;;;0.20;0.17;;;;;;;0.93;100.00;102346.03;4997531;28;20637;-73
2023/02/04 07:54:05;;;;;;;0.00;0.00;;;;;;;0.99;100.00;102350.59;4997744;28;20177;-78
2023/02/04 07:56:30;;;;;;;0.00;0.00;;;;;;;1.08;100.00;102346.72;4997697;28;20180;-81
2023/02/04 07:58:55;;;;;;;0.00;0.00;;;;;;;1.17;100.00;102352.78;4997442;28;20522;-77
2023/02/04 08:01:21;;;;;;;0.00;0.00;;;;;;;1.30;100.00;102357.34;4997523;28;20205;-80
2023/02/04 08:03:46;;;;;;;0.00;0.00;;;;;;;1.37;100.00;102358.19;4997905;28;20177;-71
2023/02/04 08:06:11;;;;;;;0.00;0.00;;;;;;;1.46;100.00;102359.69;4997651;28;20268;-71
2023/02/04 08:08:36;;;;;;;0.00;0.00;;;;;;;1.50;100.00;102369.00;5000909;28;20200;-71
2023/02/04 08:11:02;;;;;;;0.00;0.00;;;;;;;1.54;100.00;102374.81;4998747;28;20243;-71
2023/02/04 08:13:27;;;;;;;0.00;0.00;;;;;;;1.33;100.00;102365.03;4998217;28;20177;-71
2023/02/04 08:15:52;;;;;;;0.00;0.00;;;;;;;1.24;100.00;102374.31;4996342;28;20323;-71
2023/02/04 08:18:18;;;;;;;0.00;0.00;;;;;;;1.09;100.00;102369.91;4997513;28;20176;-71
2023/02/04 08:20:43;;;;;;;0.00;0.00;;;;;;;0.98;100.00;102383.94;4996130;28;20177;-71
2023/02/04 08:23:08;;;;;;;0.00;0.00;;;;;;;1.00;100.00;102384.56;4997438;28;20711;-71
2023/02/04 08:25:34;;;;;;;0.00;0.00;;;;;;;0.96;100.00;102383.31;4997426;28;20205;-71
2023/02/04 08:27:59;;;;;;;0.10;0.10;;;;;;;0.99;100.00;102382.91;4997534;28;20181;-71
2023/02/04 08:30:24;;;;;;;0.00;0.00;;;;;;;1.08;100.00;102384.41;4997245;28;20548;-70
2023/02/04 08:32:50;;;;;;;0.00;0.00;;;;;;;1.11;100.00;102380.47;4997314;28;20268;-71
2023/02/04 08:35:15;;;;;;;0.10;0.10;;;;;;;1.13;100.00;102376.53;4997502;28;20192;-71
2023/02/04 08:37:40;;;;;;;0.00;0.00;;;;;;;1.19;100.00;102373.06;4996066;28;20189;-74
2023/02/04 08:40:06;;;;;;;0.07;0.07;;;;;;;1.10;100.00;102373.44;4997251;28;20653;-71
2023/02/04 08:42:31;;;;;;;0.00;0.00;;;;;;;1.15;100.00;102373.66;4997360;28;20181;-70
2023/02/04 08:44:57;;;;;;;0.43;0.43;;;;;;;1.24;100.00;102377.84;4997288;28;20184;-71
2023/02/04 08:47:22;;;;;;;0.00;0.00;;;;;;;1.29;100.00;102374.53;4996994;28;20169;-73
2023/02/04 08:49:47;;;;;;;0.07;0.07;;;;;;;1.30;100.00;102374.34;4987543;28;20293;-71
2023/02/04 08:52:12;;;;;;;0.00;0.00;;;;;;;1.35;100.00;102385.34;4974664;28;20236;-71
2023/02/04 08:54:38;;;;;;;0.00;0.00;;;;;;;1.35;100.00;102392.59;4973425;28;20547;-71
2023/02/04 08:57:03;;;;;;;0.30;0.20;;;;;;;1.40;100.00;102396.31;4983502;28;20184;-74
2023/02/04 08:59:29;;;;;;;0.23;0.23;;;;;;;1.43;100.00;102406.69;4993674;28;20219;-72
2023/02/04 09:01:54;;;;;;;0.57;0.57;;;;;;;1.44;100.00;102410.19;4993940;28;20234;-71
2023/02/04 09:04:21;;;;;;;0.00;0.00;;;;;;;1.46;100.00;102410.84;4992608;28;20554;-71
2023/02/04 09:06:48;;;;;;;0.10;0.10;;;;;;;1.53;100.00;102421.63;4993382;28;20169;-71
2023/02/04 09:09:13;;;;;;;0.00;0.00;;;;;;;1.64;100.00;102424.56;4979364;28;20513;-71
2023/02/04 09:11:39;;;;;;;0.23;0.20;;;;;;;1.74;100.00;102427.72;4974262;28;20317;-74
2023/02/04 09:14:05;;;;;;;0.33;0.33;;;;;;;1.73;100.00;102430.59;4974253;28;20174;-71
2023/02/04 09:16:30;;;;;;;0.03;0.03;;;;;;;1.87;100.00;102439.53;4974260;28;20174;-81
2023/02/04 09:18:57;;;;;;;0.00;0.00;;;;;;;1.86;100.00;102438.72;4974226;28;20693;-71
2023/02/04 09:21:23;;;;;;;0.27;0.27;;;;;;;1.96;100.00;102439.16;4973997;28;20557;-72
2023/02/04 09:23:48;;;;;;;0.20;0.20;;;;;;;1.91;100.00;102443.50;4974121;28;20185;-71
2023/02/04 09:26:13;;;;;;;0.10;0.10;;;;;;;1.94;100.00;102445.78;4976285;28;20186;-71
2023/02/04 09:28:38;;;;;;;0.00;0.00;;;;;;;2.00;100.00;102448.47;4972645;28;20543;-71
2023/02/04 09:31:05;;;;;;;0.30;0.30;;;;;;;2.07;100.00;102446.63;4973678;28;20210;-72
2023/02/04 09:33:31;;;;;;;0.80;0.80;;;;;;;2.11;100.00;102462.41;4976450;28;20189;-72
2023/02/04 09:35:57;;;;;;;0.00;0.00;;;;;;;2.09;100.00;102463.44;4982078;28;20579;-71
2023/02/04 09:38:22;;;;;;;0.20;0.17;;;;;;;2.24;100.00;102468.63;4983547;28;20185;-71
2023/02/04 09:40:56;;;;;;;0.00;0.00;;;;;;;2.32;100.00;102467.63;4983413;28;20192;-72
2023/02/04 09:43:25;;;;;;;0.73;0.73;;;;;;;2.24;100.00;102474.03;4981263;28;20178;-71
2023/02/04 09:45:51;;;;;;;0.07;0.07;;;;;;;2.31;100.00;102477.56;4984160;28;20186;-71
2023/02/04 09:48:17;;;;;;;0.00;0.00;;;;;;;2.48;100.00;102478.00;4982214;28;20174;-71
2023/02/04 09:50:43;;;;;;;0.00;0.00;;;;;;;2.58;100.00;102480.25;4982689;28;20223;-74
2023/02/04 09:53:14;;;;;;;0.00;0.00;;;;;;;2.51;100.00;102482.97;4983430;28;20182;-75
2023/02/04 09:55:42;;;;;;;0.40;0.40;;;;;;;2.52;100.00;102484.63;4982337;28;20252;-73
2023/02/04 09:58:16;;;;;;;0.10;0.10;;;;;;;2.49;100.00;102492.31;4982528;28;20204;-73
2023/02/04 10:00:42;;;;;;;0.00;0.00;;;;;;;2.38;100.00;102489.19;4981522;28;20205;-72
2023/02/04 10:03:17;;;;;;;0.17;0.13;;;;;;;2.43;100.00;102496.66;4982649;28;20173;-78
2023/02/04 10:05:44;;;;;;;0.00;0.00;;;;;;;2.46;100.00;102496.25;4975694;28;20178;-70
2023/02/04 10:08:27;;;;;;;0.00;0.00;;;;;;;2.74;100.00;102490.63;4973328;28;20202;-74
2023/02/04 10:10:53;;;;;;;0.00;0.00;;;;;;;2.88;100.00;102502.25;4973130;28;20236;-69
2023/02/04 10:13:23;;;;;;;0.97;0.67;;;;;;;3.04;100.00;102501.84;4971870;28;20228;-69
2023/02/04 10:15:49;;;;;;;0.03;0.03;;;;;;;3.07;100.00;102498.69;4973056;28;20233;-69
2023/02/04 10:18:24;;;;;;;0.20;0.20;;;;;;;3.11;100.00;102515.31;4973119;28;20174;-69
2023/02/04 10:20:50;;;;;;;0.00;0.00;;;;;;;3.23;100.00;102516.31;4973078;28;20193;-70
2023/02/04 10:23:16;;;;;;;0.00;0.00;;;;;;;2.97;100.00;102518.03;4972936;28;20236;-71
2023/02/04 10:25:41;;;;;;;0.20;0.20;;;;;;;2.78;100.00;102521.59;4972929;28;20175;-70
2023/02/04 10:28:07;;;;;;;0.40;0.40;;;;;;;2.76;100.00;102528.22;4973056;28;20182;-70
2023/02/04 10:30:42;;;;;;;0.00;0.00;;;;;;;2.85;100.00;102533.19;5009358;28;20608;-69
2023/02/04 10:33:23;;;;;;;0.00;0.00;;;;;;;3.13;100.00;102534.81;5011894;28;20211;-70
2023/02/04 10:35:51;;;;;;;0.00;0.00;;;;;;;3.15;100.00;102538.97;5011915;28;20172;-71
2023/02/04 10:38:16;;;;;;;1.60;1.50;;;;;;;3.05;100.00;102530.50;5011827;28;20184;-74
2023/02/04 10:40:42;;;;;;;0.00;0.00;;;;;;;3.04;100.00;102536.94;5011514;28;20195;-72
2023/02/04 10:43:09;;;;;;;0.90;0.47;;;;;;;2.95;100.00;102541.72;5011726;28;20180;-76
2023/02/04 10:45:34;;;;;;;0.00;0.00;;;;;;;3.03;100.00;102547.91;5011545;28;20173;-73
2023/02/04 10:47:59;;;;;;;0.00;0.00;;;;;;;3.10;100.00;102543.34;5011736;28;20541;-70
2023/02/04 10:50:26;;;;;;;0.00;0.00;;;;;;;3.20;100.00;102541.06;5011285;28;20303;-69
2023/02/04 10:55:56;;;;;;;0.00;0.00;;;;;;;2.94;100.00;102550.03;4988116;28;20200;-69
2023/02/04 10:58:27;;;;;;;0.10;0.10;;;;;;;2.97;100.00;102546.91;5010944;28;20659;-70
2023/02/04 11:00:52;;;;;;;0.10;0.10;;;;;;;3.01;100.00;102552.69;5009915;28;20632;-70
2023/02/04 11:03:24;;;;;;;0.03;0.03;;;;;;;3.13;100.00;102551.03;5011552;28;20183;-70
2023/02/04 11:05:50;;;;;;;0.00;0.00;;;;;;;3.06;100.00;102544.81;5010736;28;20350;-70
2023/02/04 11:08:35;;;;;;;0.10;0.10;;;;;;;3.32;100.00;102538.53;5011161;28;20188;-69
2023/02/04 11:11:08;;;;;;;0.00;0.00;;;;;;;3.25;99.79;102533.97;5010174;28;20266;-71
2023/02/04 11:13:49;;;;;;;0.00;0.00;;;;;;;3.39;99.32;102534.78;5010844;28;20219;-70
2023/02/04 11:16:30;;;;;;;0.90;0.87;;;;;;;3.48;97.95;102530.81;5010635;28;20172;-70
2023/02/04 11:19:10;;;;;;;1.40;1.30;;;;;;;3.29;95.80;102542.47;5010891;28;20169;-71
2023/02/04 11:21:35;;;;;;;0.17;0.17;;;;;;;3.58;95.91;102544.69;5010546;28;20196;-69
2023/02/04 11:24:31;;;;;;;0.43;0.43;;;;;;;3.98;96.30;102541.81;5010813;28;20547;-69